Time;durP1;ratioP1;P1;durP2;ratioP2;P2;SDS_P1;SDS_P2;PMS_P1;PMS_P2;Temp;Humidity;BMP_temperature;BMP_pressure;BME280_temperature;BME280_humidity;BME280_pressure;Samples;Min_cycle;Max_cycle;Signal;HPM_P1;HPM_P2
2023/03/04 00:01:39;;;;;;;12.63;2.30;;;5.80;99.90;;;;;;6270704;22;20061;-79
2023/03/04 00:04:04;;;;;;;12.95;2.08;;;5.90;99.90;;;;;;6244532;22;20078;-80
2023/03/04 00:06:30;;;;;;;13.35;2.88;;;5.80;99.90;;;;;;6244794;22;20690;-79
2023/03/04 00:08:56;;;;;;;15.20;1.90;;;5.80;99.90;;;;;;6218998;22;20126;-79
2023/03/04 00:11:22;;;;;;;11.70;2.10;;;5.80;99.90;;;;;;6245464;22;20073;-79
2023/03/04 00:13:47;;;;;;;30.33;4.82;;;5.80;99.90;;;;;;6244882;22;20106;-81
2023/03/04 00:16:13;;;;;;;10.70;1.80;;;5.70;99.90;;;;;;6272722;22;20028;-77
2023/03/04 00:18:39;;;;;;;18.73;2.85;;;5.80;99.90;;;;;;6218320;22;20016;-77
2023/03/04 00:21:05;;;;;;;9.35;1.75;;;5.80;99.90;;;;;;6244774;22;20020;-79
2023/03/04 00:23:30;;;;;;;18.17;2.05;;;5.80;99.90;;;;;;6219152;22;20500;-77
2023/03/04 00:25:56;;;;;;;15.93;2.30;;;5.80;99.90;;;;;;6243081;22;20019;-78
2023/03/04 00:28:22;;;;;;;15.13;2.10;;;5.80;99.90;;;;;;6244377;22;20103;-77
2023/03/04 00:30:47;;;;;;;8.65;1.60;;;5.80;99.90;;;;;;6271366;22;20027;-78
2023/03/04 00:33:13;;;;;;;12.55;1.65;;;5.80;99.90;;;;;;6244848;22;20441;-77
2023/03/04 00:35:39;;;;;;;12.30;2.13;;;5.60;99.90;;;;;;6244184;22;20020;-78
2023/03/04 00:38:05;;;;;;;19.00;2.50;;;5.70;99.90;;;;;;6245612;22;20026;-79
2023/03/04 00:40:30;;;;;;;10.38;2.05;;;5.70;99.90;;;;;;6218133;22;20022;-77
2023/03/04 00:42:56;;;;;;;15.48;2.35;;;5.80;99.90;;;;;;6244393;22;20791;-78
2023/03/04 00:45:22;;;;;;;11.43;1.70;;;5.70;99.90;;;;;;6245346;22;20027;-78
2023/03/04 00:47:47;;;;;;;15.68;2.78;;;5.70;99.90;;;;;;6244625;22;20390;-77
2023/03/04 00:50:13;;;;;;;14.20;2.25;;;5.70;99.90;;;;;;6243950;22;20022;-78
2023/03/04 00:52:39;;;;;;;15.30;2.08;;;5.70;99.90;;;;;;6243819;22;20078;-82
2023/03/04 00:55:05;;;;;;;9.15;1.58;;;5.70;99.90;;;;;;6245102;22;20465;-77
2023/03/04 00:57:31;;;;;;;12.50;1.90;;;5.80;99.90;;;;;;6219394;22;20026;-82
2023/03/04 00:59:57;;;;;;;15.27;1.88;;;5.70;99.90;;;;;;6244176;22;20098;-77
2023/03/04 01:02:22;;;;;;;14.10;2.15;;;5.70;99.90;;;;;;6219023;22;20023;-77
2023/03/04 01:04:48;;;;;;;10.73;1.38;;;5.70;99.90;;;;;;6243910;22;20019;-77
2023/03/04 01:07:14;;;;;;;12.13;1.83;;;5.70;99.90;;;;;;6245064;22;20447;-77
2023/03/04 01:09:39;;;;;;;17.92;2.22;;;5.80;99.90;;;;;;6272231;22;20451;-77
2023/03/04 01:12:05;;;;;;;12.35;2.22;;;5.70;99.90;;;;;;6268480;22;20024;-77
2023/03/04 01:14:31;;;;;;;18.27;3.42;;;5.80;99.90;;;;;;6244322;22;20020;-78
2023/03/04 01:16:57;;;;;;;19.58;2.88;;;5.80;99.90;;;;;;6219073;22;20343;-78
2023/03/04 01:19:22;;;;;;;14.90;1.73;;;5.80;99.90;;;;;;6244931;22;20028;-78
2023/03/04 01:21:48;;;;;;;14.55;1.58;;;5.80;99.90;;;;;;6243753;22;20019;-78
2023/03/04 01:24:14;;;;;;;24.70;4.13;;;5.80;99.90;;;;;;6245140;22;20015;-78
2023/03/04 01:26:40;;;;;;;11.10;1.75;;;5.80;99.90;;;;;;6271422;22;20065;-78
2023/03/04 01:29:05;;;;;;;10.38;1.80;;;5.80;99.90;;;;;;6244048;22;20019;-78
2023/03/04 01:31:31;;;;;;;14.82;1.90;;;5.70;99.90;;;;;;6271939;22;20534;-78
2023/03/04 01:33:57;;;;;;;8.95;1.70;;;5.80;99.90;;;;;;6243995;22;20086;-78
2023/03/04 01:36:22;;;;;;;13.20;2.15;;;5.80;99.90;;;;;;6244691;22;20031;-78
2023/03/04 01:38:48;;;;;;;18.40;1.88;;;5.80;99.90;;;;;;6243383;22;20026;-81
2023/03/04 01:41:24;;;;;;;12.77;2.10;;;5.80;99.90;;;;;;6244037;22;20455;-78
2023/03/04 01:43:50;;;;;;;14.27;1.70;;;5.70;99.90;;;;;;6244409;22;20091;-78
2023/03/04 01:46:16;;;;;;;12.30;1.60;;;5.80;99.90;;;;;;6244644;22;20437;-78
2023/03/04 01:48:43;;;;;;;14.55;1.83;;;5.90;99.90;;;;;;6269493;22;20020;-80
2023/03/04 01:51:18;;;;;;;12.68;1.98;;;5.80;99.90;;;;;;6243552;22;20290;-78
2023/03/04 01:53:46;;;;;;;23.88;1.73;;;5.80;99.90;;;;;;6244648;22;20109;-79
2023/03/04 01:56:23;;;;;;;9.43;1.98;;;5.80;99.90;;;;;;6243394;22;20015;-78
2023/03/04 01:59:25;;;;;;;12.73;2.20;;;5.80;99.90;;;;;;6270610;22;20109;-85
2023/03/04 02:01:53;;;;;;;15.65;2.20;;;5.80;99.90;;;;;;6244804;22;20026;-83
2023/03/04 02:04:22;;;;;;;16.55;2.05;;;5.70;99.90;;;;;;6218674;22;20015;-78
2023/03/04 02:06:49;;;;;;;9.52;1.73;;;5.70;99.90;;;;;;6244883;22;20016;-78
2023/03/04 02:09:16;;;;;;;14.63;1.80;;;5.80;99.90;;;;;;6243352;22;20026;-79
2023/03/04 02:11:43;;;;;;;10.85;1.85;;;5.80;99.90;;;;;;6244150;22;20095;-78
2023/03/04 02:14:10;;;;;;;9.07;1.20;;;5.70;99.90;;;;;;6243541;22;20077;-78
2023/03/04 02:16:36;;;;;;;9.70;1.35;;;5.70;99.90;;;;;;6242451;22;20753;-79
2023/03/04 02:19:06;;;;;;;8.65;1.50;;;5.80;99.90;;;;;;6243609;22;20098;-78
2023/03/04 02:21:33;;;;;;;8.10;1.55;;;5.80;99.90;;;;;;6243875;22;20075;-83
2023/03/04 02:24:16;;;;;;;7.43;1.50;;;5.70;99.90;;;;;;6243393;22;20030;-78
2023/03/04 02:26:43;;;;;;;17.35;1.98;;;5.80;99.90;;;;;;6244200;22;20513;-79
2023/03/04 02:29:11;;;;;;;13.80;1.80;;;5.70;99.90;;;;;;6270306;22;20050;-79
2023/03/04 02:31:39;;;;;;;11.55;1.48;;;5.70;99.90;;;;;;6241597;22;20028;-78
2023/03/04 02:34:12;;;;;;;13.85;2.25;;;5.70;99.90;;;;;;6217743;22;20019;-78
2023/03/04 02:36:39;;;;;;;10.80;2.05;;;5.80;99.90;;;;;;6242150;22;20023;-81
2023/03/04 02:39:21;;;;;;;12.15;1.50;;;5.60;99.90;;;;;;6218068;22;20020;-78
2023/03/04 02:41:48;;;;;;;10.05;1.40;;;5.60;99.90;;;;;;6244740;22;20506;-77
2023/03/04 02:44:45;;;;;;;14.32;1.92;;;5.70;99.90;;;;;;6218841;22;20077;-78
2023/03/04 02:47:13;;;;;;;12.85;1.45;;;5.50;99.90;;;;;;6242752;22;20016;-78
2023/03/04 02:49:40;;;;;;;14.43;2.10;;;5.50;99.90;;;;;;6242033;22;20492;-78
2023/03/04 02:52:13;;;;;;;11.80;2.13;;;5.50;99.90;;;;;;6242926;22;20346;-79
2023/03/04 02:54:39;;;;;;;11.77;1.70;;;5.50;99.90;;;;;;6243470;22;20328;-78
2023/03/04 02:57:08;;;;;;;15.02;2.33;;;5.50;99.90;;;;;;6268650;22;20023;-78
2023/03/04 02:59:38;;;;;;;17.33;2.25;;;5.50;99.90;;;;;;6244032;22;20016;-78
2023/03/04 03:02:05;;;;;;;8.25;1.85;;;5.50;99.90;;;;;;6243646;22;20074;-78
2023/03/04 03:04:32;;;;;;;8.10;1.50;;;5.50;99.90;;;;;;6269388;22;20019;-79
2023/03/04 03:06:57;;;;;;;8.85;1.17;;;5.50;99.90;;;;;;6244221;22;20059;-79
2023/03/04 03:09:23;;;;;;;9.15;1.40;;;5.50;99.90;;;;;;6216852;22;20420;-78
2023/03/04 03:11:49;;;;;;;12.32;1.55;;;5.50;99.90;;;;;;6243235;22;20157;-84
2023/03/04 03:14:15;;;;;;;13.25;3.97;;;5.50;99.90;;;;;;6243864;22;20561;-78
2023/03/04 03:16:42;;;;;;;14.45;2.30;;;5.70;99.90;;;;;;6243175;22;20022;-78
2023/03/04 03:19:07;;;;;;;6.57;1.40;;;5.50;99.90;;;;;;6243227;22;20022;-79
2023/03/04 03:21:33;;;;;;;10.13;1.70;;;5.60;99.90;;;;;;6244475;22;20463;-78
2023/03/04 03:23:59;;;;;;;13.13;1.40;;;5.60;99.90;;;;;;6243135;22;20012;-78
2023/03/04 03:26:24;;;;;;;13.45;2.45;;;5.60;99.90;;;;;;6218028;22;20023;-79
2023/03/04 03:28:50;;;;;;;10.40;1.50;;;5.60;99.90;;;;;;6243917;22;20020;-77
2023/03/04 03:31:16;;;;;;;8.60;1.88;;;5.60;99.90;;;;;;6243805;22;20063;-78
2023/03/04 03:33:41;;;;;;;9.57;2.17;;;5.60;99.90;;;;;;6244088;22;20020;-78
2023/03/04 03:36:07;;;;;;;18.23;2.05;;;5.50;99.90;;;;;;6242671;22;20070;-80
2023/03/04 03:38:33;;;;;;;13.10;2.22;;;5.60;99.90;;;;;;6243479;22;20027;-77
2023/03/04 03:40:59;;;;;;;18.45;1.95;;;5.50;99.90;;;;;;6242903;22;20083;-78
2023/03/04 03:43:25;;;;;;;13.30;1.65;;;5.60;99.90;;;;;;6244183;22;20177;-78
2023/03/04 03:45:50;;;;;;;12.05;1.55;;;5.60;99.90;;;;;;6271091;22;20019;-77
2023/03/04 03:48:17;;;;;;;13.38;1.90;;;5.60;99.90;;;;;;6243079;22;20016;-78
2023/03/04 03:50:42;;;;;;;9.95;1.25;;;5.60;99.90;;;;;;6243623;22;20027;-78
2023/03/04 03:53:08;;;;;;;8.43;1.42;;;5.60;99.90;;;;;;6219028;22;20465;-84
2023/03/04 03:55:34;;;;;;;14.52;1.90;;;5.60;99.90;;;;;;6218039;22;20125;-77
2023/03/04 03:58:00;;;;;;;8.98;1.80;;;5.50;99.90;;;;;;6217610;22;20035;-78
2023/03/04 04:00:25;;;;;;;14.50;1.60;;;5.60;99.90;;;;;;6217750;22;20016;-78
2023/03/04 04:02:54;;;;;;;11.45;2.80;;;5.60;99.90;;;;;;6243651;22;20023;-79
2023/03/04 04:05:19;;;;;;;6.28;1.10;;;5.60;99.90;;;;;;6219481;22;20038;-81
2023/03/04 04:07:45;;;;;;;11.40;1.20;;;5.60;99.90;;;;;;6218893;22;20019;-78
2023/03/04 04:10:11;;;;;;;8.43;1.13;;;5.60;99.90;;;;;;6245285;22;20020;-82
2023/03/04 04:12:37;;;;;;;14.80;1.75;;;5.50;99.90;;;;;;6245012;22;20095;-77
2023/03/04 04:15:03;;;;;;;14.45;1.80;;;5.50;99.90;;;;;;6246215;22;20517;-78
2023/03/04 04:17:28;;;;;;;13.38;1.70;;;5.60;99.90;;;;;;6271231;22;20123;-78
2023/03/04 04:19:54;;;;;;;10.68;1.48;;;5.60;99.90;;;;;;6220264;22;20062;-78
2023/03/04 04:22:20;;;;;;;9.45;1.80;;;5.50;99.90;;;;;;6244884;22;20020;-78
2023/03/04 04:24:47;;;;;;;4.78;1.17;;;5.60;99.90;;;;;;6245558;22;20093;-78
2023/03/04 04:27:13;;;;;;;7.35;1.30;;;5.50;99.90;;;;;;6219130;22;20023;-82
2023/03/04 04:29:40;;;;;;;12.10;2.42;;;5.50;99.90;;;;;;6245489;22;20023;-78
2023/03/04 04:32:07;;;;;;;13.63;1.63;;;5.50;99.90;;;;;;6220158;22;20022;-78
2023/03/04 04:34:33;;;;;;;6.72;1.17;;;5.50;99.90;;;;;;6244090;22;20535;-78
2023/03/04 04:36:58;;;;;;;9.63;1.65;;;5.50;99.90;;;;;;6245087;22;20050;-78
2023/03/04 04:39:24;;;;;;;9.25;1.80;;;5.50;99.90;;;;;;6243380;22;20023;-78
2023/03/04 04:41:50;;;;;;;10.52;1.80;;;5.50;99.90;;;;;;6244674;22;20087;-78
2023/03/04 04:44:16;;;;;;;14.10;1.63;;;5.40;99.90;;;;;;6219135;22;20023;-83
2023/03/04 04:46:42;;;;;;;11.55;1.90;;;5.30;1.00;;;;;;6245981;22;20090;-78
2023/03/04 04:49:08;;;;;;;11.50;1.70;;;5.40;1.00;;;;;;6272398;22;20514;-79
2023/03/04 04:51:35;;;;;;;8.23;1.33;;;5.40;1.00;;;;;;6243506;22;20023;-78
2023/03/04 04:54:02;;;;;;;14.70;2.28;;;5.30;1.00;;;;;;6270688;22;20422;-78
2023/03/04 04:56:29;;;;;;;10.50;1.60;;;5.30;1.00;;;;;;6244045;22;20324;-80
2023/03/04 04:58:59;;;;;;;12.05;1.90;;;5.20;1.00;;;;;;6245091;22;20397;-79
2023/03/04 05:01:26;;;;;;;10.88;1.77;;;5.20;1.00;;;;;;6218576;22;20038;-80
2023/03/04 05:03:54;;;;;;;15.25;3.00;;;5.20;1.00;;;;;;6246136;22;20054;-78
2023/03/04 05:06:22;;;;;;;13.18;1.80;;;5.20;1.00;;;;;;6244455;22;20023;-80
2023/03/04 05:08:48;;;;;;;13.38;2.10;;;5.10;1.00;;;;;;6244148;22;20015;-78
2023/03/04 05:11:14;;;;;;;9.88;1.88;;;5.20;1.00;;;;;;6244593;22;20070;-77
2023/03/04 05:13:40;;;;;;;13.95;1.67;;;5.20;1.00;;;;;;6244219;22;20012;-78
2023/03/04 05:16:06;;;;;;;11.73;1.90;;;5.20;1.00;;;;;;6243326;22;20077;-78
2023/03/04 05:18:35;;;;;;;11.32;1.65;;;5.20;1.00;;;;;;6243964;22;20023;-78
2023/03/04 05:21:03;;;;;;;9.60;1.80;;;5.20;1.00;;;;;;6270871;22;20016;-79
2023/03/04 05:23:34;;;;;;;14.85;1.98;;;5.30;1.00;;;;;;6244402;22;20440;-78
2023/03/04 05:28:35;;;;;;;10.40;1.77;;;5.30;1.00;;;;;;6267986;22;20089;-88
2023/03/04 05:31:01;;;;;;;8.05;1.30;;;5.30;3.70;;;;;;6245085;22;20019;-89
2023/03/04 05:33:27;;;;;;;8.75;1.40;;;5.30;16.30;;;;;;6244352;22;20437;-88
2023/03/04 05:35:53;;;;;;;14.73;1.60;;;5.20;10.60;;;;;;6245458;22;20072;-89
2023/03/04 05:38:20;;;;;;;10.70;1.48;;;5.20;99.90;;;;;;6245610;22;20406;-89
2023/03/04 05:40:47;;;;;;;12.65;1.80;;;5.20;99.90;;;;;;6219390;22;20012;-90
2023/03/04 05:43:13;;;;;;;12.18;1.63;;;5.10;99.90;;;;;;6272914;22;20038;-90
2023/03/04 05:45:41;;;;;;;10.93;1.73;;;5.10;99.90;;;;;;6218052;22;20019;-89
2023/03/04 05:48:07;;;;;;;15.38;1.70;;;4.70;99.90;;;;;;6242016;22;20033;-88
2023/03/04 05:50:34;;;;;;;10.38;2.17;;;5.00;99.90;;;;;;6243981;22;20098;-89
2023/03/04 05:53:00;;;;;;;12.10;1.70;;;5.00;99.90;;;;;;6245918;22;20024;-89
2023/03/04 05:55:27;;;;;;;15.40;1.98;;;5.20;99.90;;;;;;6243597;22;20023;-88
2023/03/04 05:57:53;;;;;;;10.35;1.65;;;5.00;99.90;;;;;;6219562;22;20008;-87
2023/03/04 06:00:19;;;;;;;10.85;1.70;;;5.00;99.90;;;;;;6219586;22;20813;-89
2023/03/04 06:02:45;;;;;;;9.43;1.60;;;5.00;99.90;;;;;;6244391;22;20513;-90
2023/03/04 06:05:13;;;;;;;12.07;2.85;;;5.00;99.90;;;;;;6193626;22;20015;-89
2023/03/04 06:07:38;;;;;;;9.30;2.08;;;5.20;99.90;;;;;;6244413;22;20012;-90
2023/03/04 06:10:05;;;;;;;14.38;1.83;;;5.20;99.90;;;;;;6245188;22;20019;-91
2023/03/04 06:12:31;;;;;;;11.88;2.53;;;5.00;99.90;;;;;;6244819;22;20054;-89
2023/03/04 06:14:56;;;;;;;11.98;1.40;;;5.10;99.90;;;;;;6243719;22;20047;-91
2023/03/04 06:17:22;;;;;;;7.78;1.33;;;5.10;99.90;;;;;;6193560;22;20024;-86
2023/03/04 06:19:48;;;;;;;11.05;1.60;;;5.10;99.90;;;;;;6192561;22;20023;-88
2023/03/04 06:22:13;;;;;;;8.23;1.67;;;5.10;99.90;;;;;;6218777;22;20016;-87
2023/03/04 06:24:39;;;;;;;9.90;1.50;;;5.00;99.90;;;;;;6217632;22;20090;-86
2023/03/04 06:27:05;;;;;;;12.57;1.58;;;5.00;99.90;;;;;;6218080;22;20020;-86
2023/03/04 06:29:31;;;;;;;9.00;1.48;;;4.80;99.90;;;;;;6243503;22;20469;-85
2023/03/04 06:31:57;;;;;;;10.43;1.33;;;4.90;99.90;;;;;;6270454;22;20656;-86
2023/03/04 06:34:23;;;;;;;11.32;1.33;;;4.70;99.90;;;;;;6193577;22;20058;-86
2023/03/04 06:36:48;;;;;;;14.10;1.77;;;4.90;99.90;;;;;;6244675;22;20051;-87
2023/03/04 06:39:14;;;;;;;7.88;1.55;;;4.90;99.90;;;;;;6244547;22;20412;-87
2023/03/04 06:41:40;;;;;;;10.90;1.30;;;5.00;99.90;;;;;;6193183;22;20016;-86
2023/03/04 06:44:06;;;;;;;5.65;1.13;;;4.80;99.90;;;;;;6243998;22;20020;-88
2023/03/04 06:46:35;;;;;;;13.68;1.67;;;5.10;99.90;;;;;;6218498;22;20478;-87
2023/03/04 06:49:01;;;;;;;11.52;1.85;;;5.10;1.00;;;;;;6244605;22;20015;-88
2023/03/04 06:51:27;;;;;;;11.80;1.25;;;4.90;1.00;;;;;;6243829;22;20024;-91
2023/03/04 06:53:53;;;;;;;8.45;1.77;;;5.10;1.00;;;;;;6217962;22;20027;-90
2023/03/04 06:56:18;;;;;;;11.45;1.48;;;5.10;1.00;;;;;;6244998;22;20098;-89
2023/03/04 06:58:44;;;;;;;10.13;1.77;;;5.10;1.00;;;;;;6216210;22;20085;-88
2023/03/04 07:01:25;;;;;;;8.65;1.10;;;5.10;1.00;;;;;;6213135;22;20407;-89
2023/03/04 07:03:52;;;;;;;6.53;1.25;;;5.40;1.00;;;;;;6212830;22;20450;-88
2023/03/04 07:06:21;;;;;;;9.02;1.35;;;5.40;1.00;;;;;;6212430;22;20032;-86
2023/03/04 07:08:47;;;;;;;10.75;1.20;;;5.40;1.00;;;;;;6210865;22;20843;-85
2023/03/04 07:11:13;;;;;;;8.45;0.88;;;5.50;1.00;;;;;;6213090;22;20058;-87
2023/03/04 07:13:39;;;;;;;8.48;1.40;;;5.50;1.00;;;;;;6216289;22;20024;-87
2023/03/04 07:16:06;;;;;;;5.70;1.00;;;5.50;1.00;;;;;;6197182;22;20078;-90
2023/03/04 07:18:32;;;;;;;7.85;1.25;;;5.40;1.00;;;;;;6216202;22;20030;-88
2023/03/04 07:20:58;;;;;;;8.40;1.27;;;5.50;1.00;;;;;;6219788;22;20015;-90
2023/03/04 07:23:24;;;;;;;11.23;1.58;;;6.00;1.00;;;;;;6220805;22;20150;-88
2023/03/04 07:25:49;;;;;;;9.70;1.20;;;5.70;1.00;;;;;;6192594;22;20446;-84
2023/03/04 07:28:16;;;;;;;10.07;1.27;;;5.50;1.00;;;;;;6243709;22;20016;-85
2023/03/04 07:30:42;;;;;;;12.65;1.50;;;5.70;1.00;;;;;;6238945;22;20020;-87
2023/03/04 07:33:08;;;;;;;14.35;1.40;;;5.60;1.00;;;;;;6241829;22;20434;-83
2023/03/04 07:35:34;;;;;;;17.73;1.98;;;6.10;1.00;;;;;;6243108;22;20016;-86
2023/03/04 07:37:59;;;;;;;9.77;1.42;;;5.70;1.00;;;;;;6243775;22;20019;-86
2023/03/04 07:40:25;;;;;;;9.73;1.60;;;5.70;1.00;;;;;;6246101;22;20098;-85
2023/03/04 07:42:52;;;;;;;9.65;1.50;;;5.80;1.00;;;;;;6245311;22;20605;-87
2023/03/04 07:45:19;;;;;;;9.07;1.05;;;5.90;1.00;;;;;;6221346;22;20094;-85
2023/03/04 07:47:44;;;;;;;9.65;1.45;;;5.90;1.00;;;;;;6245511;22;20441;-87
2023/03/04 07:50:12;;;;;;;8.75;1.17;;;6.20;1.00;;;;;;6220215;22;20109;-88
2023/03/04 07:52:39;;;;;;;11.95;1.90;;;6.10;1.00;;;;;;6245810;22;20055;-85
2023/03/04 07:55:05;;;;;;;6.38;1.20;;;6.10;1.00;;;;;;6221549;22;20051;-86
2023/03/04 07:57:31;;;;;;;11.32;1.30;;;6.10;1.00;;;;;;6247126;22;20117;-86
2023/03/04 07:59:56;;;;;;;11.20;1.98;;;6.10;1.00;;;;;;6247210;22;20024;-89
2023/03/04 08:02:22;;;;;;;9.25;1.48;;;6.10;1.00;;;;;;6222636;22;20018;-86
2023/03/04 08:04:48;;;;;;;8.20;1.60;;;6.10;1.00;;;;;;6247403;22;20012;-86
2023/03/04 08:07:13;;;;;;;9.05;1.40;;;6.30;1.00;;;;;;6223009;22;20024;-85
2023/03/04 08:09:39;;;;;;;8.65;1.15;;;6.10;1.00;;;;;;6222802;22;20082;-86
2023/03/04 08:12:05;;;;;;;11.27;1.48;;;6.10;1.00;;;;;;6222689;22;20026;-85
2023/03/04 08:14:30;;;;;;;13.25;1.90;;;6.20;1.00;;;;;;6223059;22;20059;-86
2023/03/04 08:16:56;;;;;;;7.10;1.10;;;6.20;1.00;;;;;;6247979;22;20049;-87
2023/03/04 08:19:22;;;;;;;12.32;1.15;;;6.30;1.00;;;;;;6222677;22;20020;-85
2023/03/04 08:21:47;;;;;;;11.98;1.15;;;6.20;1.00;;;;;;6222994;22;20023;-89
2023/03/04 08:24:13;;;;;;;11.32;1.85;;;6.30;1.00;;;;;;6196913;22;20015;-88
2023/03/04 08:26:42;;;;;;;8.52;1.73;;;6.30;1.00;;;;;;6222221;22;20098;-87
2023/03/04 08:29:12;;;;;;;13.77;1.45;;;6.40;1.00;;;;;;6247006;22;20454;-86
2023/03/04 08:31:38;;;;;;;13.60;1.67;;;6.40;1.00;;;;;;6247035;22;20027;-93
2023/03/04 08:34:06;;;;;;;16.58;1.92;;;6.80;1.00;;;;;;6272251;22;20018;-88
2023/03/04 08:36:32;;;;;;;15.68;1.73;;;6.50;1.00;;;;;;6222024;22;20024;-87
2023/03/04 08:38:57;;;;;;;12.85;1.33;;;6.50;1.00;;;;;;6247070;22;20074;-87
2023/03/04 08:41:26;;;;;;;10.23;1.73;;;6.30;1.00;;;;;;6222999;22;20091;-88
2023/03/04 08:43:52;;;;;;;14.18;2.75;;;6.10;1.00;;;;;;6222364;22;20016;-89
2023/03/04 08:46:17;;;;;;;18.73;2.10;;;6.00;1.00;;;;;;6247407;22;20019;-90
2023/03/04 08:48:43;;;;;;;16.08;2.55;;;6.00;1.00;;;;;;6247901;22;20098;-89
2023/03/04 08:51:14;;;;;;;14.75;2.40;;;6.00;1.00;;;;;;6222518;22;20019;-90
2023/03/04 08:53:40;;;;;;;14.82;2.13;;;6.00;1.00;;;;;;6219944;22;20050;-89
2023/03/04 08:56:07;;;;;;;16.80;2.20;;;6.20;1.00;;;;;;6245826;22;20520;-90
2023/03/04 08:58:35;;;;;;;20.33;2.85;;;6.20;1.00;;;;;;6246988;22;20070;-90
2023/03/04 09:01:03;;;;;;;18.20;2.80;;;6.20;1.00;;;;;;6246889;22;20019;-89
2023/03/04 09:03:28;;;;;;;20.58;2.75;;;6.30;1.00;;;;;;6218729;22;20016;-85
2023/03/04 09:05:54;;;;;;;23.52;3.55;;;6.60;1.00;;;;;;6220209;22;20107;-86
2023/03/04 09:08:20;;;;;;;19.10;2.42;;;6.20;1.00;;;;;;6220795;22;20020;-90
2023/03/04 09:10:50;;;;;;;18.17;3.03;;;6.70;1.00;;;;;;6219274;22;20355;-87
2023/03/04 09:13:16;;;;;;;21.88;2.50;;;6.20;1.00;;;;;;6244442;22;20023;-86
2023/03/04 09:15:47;;;;;;;17.50;2.75;;;6.10;1.00;;;;;;6195435;22;20094;-86
2023/03/04 09:18:13;;;;;;;16.38;2.55;;;6.50;1.00;;;;;;6244054;22;20016;-88
2023/03/04 09:20:39;;;;;;;16.77;2.50;;;6.10;1.00;;;;;;6219783;22;20012;-89
2023/03/04 09:23:05;;;;;;;15.57;2.97;;;6.50;1.00;;;;;;6246056;22;20016;-86
2023/03/04 09:25:35;;;;;;;20.08;2.45;;;6.10;1.00;;;;;;6219878;22;20016;-87
2023/03/04 09:28:01;;;;;;;21.58;2.72;;;6.10;1.00;;;;;;6242054;22;20413;-86
2023/03/04 09:30:27;;;;;;;15.65;2.60;;;6.30;1.00;;;;;;6216554;22;20016;-88
2023/03/04 09:32:53;;;;;;;21.52;3.10;;;6.40;1.00;;;;;;6219959;22;20016;-89
2023/03/04 09:35:21;;;;;;;12.82;2.22;;;6.40;1.00;;;;;;6242723;22;20481;-87
2023/03/04 09:37:48;;;;;;;23.23;2.50;;;6.40;99.90;;;;;;6243541;22;20020;-86
2023/03/04 09:40:43;;;;;;;25.58;2.70;;;6.40;99.90;;;;;;6192611;22;20027;-87
2023/03/04 09:43:22;;;;;;;11.85;1.90;;;6.40;99.90;;;;;;6214706;22;20022;-85
2023/03/04 09:45:55;;;;;;;25.70;3.35;;;6.40;99.90;;;;;;6245622;22;20027;-86
2023/03/04 09:48:26;;;;;;;14.77;2.08;;;7.30;99.90;;;;;;6218623;22;20019;-86
2023/03/04 09:51:17;;;;;;;17.52;2.95;;;6.40;99.90;;;;;;6218606;22;20023;-86
2023/03/04 09:53:58;;;;;;;15.63;2.55;;;6.50;99.90;;;;;;6245467;22;20023;-87
2023/03/04 09:56:25;;;;;;;11.55;2.72;;;5.60;81.10;;;;;;6220987;22;20371;-85
2023/03/04 09:58:56;;;;;;;14.20;2.67;;;6.50;99.90;;;;;;6246710;22;20019;-86
2023/03/04 10:01:30;;;;;;;20.02;2.63;;;6.50;99.00;;;;;;6221008;22;20016;-87
2023/03/04 10:04:09;;;;;;;18.42;2.60;;;6.60;14.50;;;;;;6246341;22;20019;-86
2023/03/04 10:06:37;;;;;;;11.60;2.10;;;6.50;1.00;;;;;;6246813;22;20055;-87
2023/03/04 10:09:24;;;;;;;13.77;2.67;;;6.40;9.50;;;;;;6218914;22;20343;-88
2023/03/04 10:11:58;;;;;;;;;;;6.10;1.00;;;;;;6220486;22;20016;-87
2023/03/04 10:14:27;;;;;;;11.73;1.35;;;6.30;1.00;;;;;;6245042;22;19914;-89
2023/03/04 10:17:15;;;;;;;15.07;1.50;;;6.30;1.00;;;;;;6219691;22;20023;-85
2023/03/04 10:19:44;;;;;;;7.82;1.30;;;6.30;1.00;;;;;;6219675;22;20443;-83
2023/03/04 10:22:27;;;;;;;8.73;1.48;;;6.40;1.00;;;;;;6242052;22;20019;-85
2023/03/04 10:24:57;;;;;;;8.45;0.93;;;6.50;1.00;;;;;;6240041;22;20034;-85
2023/03/04 10:27:23;;;;;;;9.95;2.33;;;6.60;1.00;;;;;;6238278;22;20336;-82
2023/03/04 10:29:50;;;;;;;8.85;1.48;;;6.70;1.00;;;;;;6237678;22;20026;-85
2023/03/04 10:32:18;;;;;;;6.10;0.95;;;6.90;1.00;;;;;;6239215;22;20024;-83
2023/03/04 10:34:46;;;;;;;7.28;1.38;;;7.10;1.00;;;;;;6238577;22;20020;-83
2023/03/04 10:37:14;;;;;;;5.85;1.17;;;7.30;1.00;;;;;;6238678;22;20213;-86
2023/03/04 10:39:51;;;;;;;7.40;0.80;;;7.50;99.90;;;;;;6237951;22;20020;-86
2023/03/04 10:42:29;;;;;;;6.03;1.08;;;8.40;99.90;;;;;;6237554;22;20020;-84
2023/03/04 10:44:57;;;;;;;10.45;1.58;;;7.40;99.90;;;;;;6238108;22;20019;-86
2023/03/04 10:47:26;;;;;;;10.85;2.67;;;7.20;99.90;;;;;;6239476;22;20011;-85
2023/03/04 10:49:57;;;;;;;14.27;1.80;;;7.50;1.00;;;;;;6242232;22;20030;-87
2023/03/04 10:52:34;;;;;;;17.60;2.45;;;7.10;99.90;;;;;;6216300;22;20024;-88
2023/03/04 10:55:25;;;;;;;13.65;1.75;;;7.30;99.90;;;;;;6243246;22;20012;-89
2023/03/04 10:58:01;;;;;;;22.52;2.13;;;7.50;99.90;;;;;;6241313;22;20016;-91
2023/03/04 11:00:36;;;;;;;16.40;1.95;;;7.60;99.90;;;;;;6244183;22;20137;-90
2023/03/04 11:03:26;;;;;;;12.35;2.08;;;7.70;99.90;;;;;;6219691;22;20467;-89
2023/03/04 11:06:17;;;;;;;16.30;2.47;;;7.80;99.90;;;;;;6221383;22;20026;-90
2023/03/04 13:54:03;;;;;;;10.55;1.20;;;7.20;20.90;;;;;;5124122;27;20432;-95
2023/03/04 13:56:46;;;;;;;10.10;1.45;;;7.20;62.10;;;;;;5075248;28;20044;-93
2023/03/04 13:59:47;;;;;;;16.10;1.88;;;8.20;81.40;;;;;;5096326;28;20049;-87
2023/03/04 14:02:21;;;;;;;8.95;1.75;;;8.50;46.30;;;;;;5087438;28;20047;-87
2023/03/04 14:04:52;;;;;;;13.65;2.72;;;8.00;77.50;;;;;;5078745;28;20367;-86
2023/03/04 14:07:24;;;;;;;11.65;2.55;;;7.60;99.90;;;;;;5066867;28;20581;-87
2023/03/04 14:10:06;;;;;;;10.98;3.58;;;7.50;99.90;;;;;;5074909;28;20443;-87
2023/03/04 14:12:34;;;;;;;11.80;2.58;;;7.40;99.90;;;;;;5084097;28;20078;-86
2023/03/04 14:15:20;;;;;;;11.25;2.30;;;7.40;99.90;;;;;;5084693;28;20087;-86
2023/03/04 14:17:56;;;;;;;13.55;3.60;;;7.70;99.90;;;;;;5083674;28;20074;-91
2023/03/04 14:20:24;;;;;;;13.68;4.22;;;8.20;99.90;;;;;;5072323;28;20048;-92
2023/03/04 14:22:53;;;;;;;11.55;2.30;;;8.60;99.90;;;;;;5107034;28;20572;-92
2023/03/04 14:25:23;;;;;;;12.20;1.90;;;8.80;63.70;;;;;;5092605;28;20123;-92
2023/03/04 14:27:49;;;;;;;13.70;3.75;;;8.60;20.60;;;;;;5074549;28;20047;-91
2023/03/04 14:30:24;;;;;;;12.60;2.45;;;8.20;63.70;;;;;;5075763;28;20055;-93
2023/03/04 14:32:57;;;;;;;18.20;2.20;;;7.90;68.40;;;;;;5073652;28;20484;-92
2023/03/04 14:35:29;;;;;;;14.80;2.88;;;7.70;76.20;;;;;;5088490;28;20044;-89
2023/03/04 14:38:39;;;;;;;11.85;1.88;;;7.70;57.10;;;;;;5092236;28;20404;-92
2023/03/04 14:41:20;;;;;;;13.20;2.47;;;7.70;28.10;;;;;;5084092;28;20181;-90
2023/03/04 14:44:12;;;;;;;18.05;2.45;;;7.70;11.50;;;;;;5066710;28;20130;-91
2023/03/04 14:46:49;;;;;;;11.30;1.80;;;7.70;66.50;;;;;;5080742;28;20047;-92
2023/03/04 14:49:15;;;;;;;13.05;2.85;;;7.60;1.00;;;;;;5073433;28;20039;-91
2023/03/04 14:51:55;;;;;;;13.40;2.17;;;7.80;45.40;;;;;;5072045;28;20177;-90
2023/03/04 14:54:42;;;;;;;8.68;1.70;;;7.70;1.20;;;;;;5074281;28;20062;-92
2023/03/04 14:57:31;;;;;;;9.70;1.73;;;7.70;1.00;;;;;;5073626;28;20158;-91
2023/03/04 15:00:14;;;;;;;9.18;1.55;;;7.40;90.70;;;;;;5085350;28;20079;-91
2023/03/04 15:02:40;;;;;;;9.23;2.35;;;7.00;99.90;;;;;;5089806;28;20507;-91
2023/03/04 15:05:16;;;;;;;7.18;1.70;;;6.70;99.90;;;;;;5080650;28;20174;-91
2023/03/04 15:07:43;;;;;;;19.45;8.40;;;6.40;99.90;;;;;;5062340;28;20072;-89
2023/03/04 15:10:14;;;;;;;10.55;3.25;;;6.20;99.90;;;;;;5088714;28;20097;-90
2023/03/04 15:12:39;;;;;;;12.77;2.85;;;6.10;99.90;;;;;;5069839;28;20040;-91
2023/03/04 15:15:30;;;;;;;15.57;2.92;;;6.30;99.90;;;;;;5070900;28;20484;-92
2023/03/04 15:18:24;;;;;;;10.52;1.80;;;6.40;99.90;;;;;;5080811;28;20043;-91
2023/03/04 15:21:20;;;;;;;11.43;2.22;;;6.50;99.90;;;;;;5058322;28;20048;-90
2023/03/04 15:23:46;;;;;;;12.98;1.83;;;6.40;99.90;;;;;;5043866;28;20049;-89
2023/03/04 15:26:12;;;;;;;9.25;1.67;;;6.10;99.90;;;;;;5040600;28;20147;-90
2023/03/04 15:28:43;;;;;;;16.30;1.63;;;5.80;99.90;;;;;;5075392;28;20484;-90
2023/03/04 15:31:17;;;;;;;14.18;2.25;;;5.60;99.90;;;;;;5058430;28;20055;-88
2023/03/04 15:33:42;;;;;;;13.93;2.10;;;5.50;99.90;;;;;;5048827;28;20125;-88
2023/03/04 15:36:13;;;;;;;11.20;1.70;;;5.50;99.90;;;;;;5055214;28;20516;-90
2023/03/04 15:38:40;;;;;;;13.60;2.03;;;5.50;99.90;;;;;;5058089;28;20046;-89
2023/03/04 15:41:10;;;;;;;9.70;1.80;;;5.60;99.90;;;;;;5075437;28;20404;-90
2023/03/04 15:43:36;;;;;;;7.40;1.58;;;5.50;99.90;;;;;;5069499;28;20040;-90
2023/03/04 15:46:02;;;;;;;11.60;1.77;;;5.40;99.90;;;;;;5068533;28;20059;-91
2023/03/04 15:48:29;;;;;;;11.20;2.35;;;5.40;99.90;;;;;;5052066;28;20101;-89
2023/03/04 15:51:02;;;;;;;10.00;2.45;;;5.40;99.90;;;;;;5056682;28;20123;-90